createdAt,value
2023-01-20T00:01:46.631Z,101220.28
2023-01-20T00:04:19.157Z,101211.63
2023-01-20T00:06:48.012Z,101225.50
2023-01-20T00:09:18.696Z,101236.81
2023-01-20T00:11:47.701Z,101239.84
2023-01-20T00:14:16.244Z,101214.16
2023-01-20T00:16:44.734Z,101233.28
2023-01-20T00:19:16.295Z,101254.09
2023-01-20T00:21:44.996Z,101231.75
2023-01-20T00:24:13.490Z,101245.66
2023-01-20T00:26:42.153Z,101250.34
2023-01-20T00:29:11.153Z,101272.13
2023-01-20T00:31:39.688Z,101224.28
2023-01-20T00:34:08.244Z,101267.69
2023-01-20T00:36:38.292Z,101265.19
2023-01-20T00:39:06.809Z,101273.00
2023-01-20T00:41:35.278Z,101279.41
2023-01-20T00:44:03.930Z,101234.41
2023-01-20T00:46:32.402Z,101249.91
2023-01-20T00:49:01.036Z,101284.56
2023-01-20T00:51:29.522Z,101258.00
2023-01-20T00:53:59.709Z,101250.53
2023-01-20T00:56:28.354Z,101273.53
2023-01-20T00:58:56.804Z,101282.28
2023-01-20T01:01:25.615Z,101268.88
2023-01-20T01:03:55.413Z,101266.66
2023-01-20T01:06:24.110Z,101281.72
2023-01-20T01:08:53.118Z,101288.41
2023-01-20T01:11:23.904Z,101289.91
2023-01-20T01:13:52.245Z,101280.13
2023-01-20T01:16:20.748Z,101290.00
2023-01-20T01:18:49.485Z,101295.16
2023-01-20T01:21:18.777Z,101293.22
2023-01-20T01:23:47.650Z,101296.78
2023-01-20T01:26:16.226Z,101285.06
2023-01-20T01:28:48.930Z,101299.09
2023-01-20T01:31:22.810Z,101216.91
2023-01-20T01:33:51.311Z,101288.56
2023-01-20T01:36:20.118Z,101279.38
2023-01-20T01:38:57.954Z,101308.72
2023-01-20T01:41:27.987Z,101296.34
2023-01-20T01:44:09.653Z,101298.06
2023-01-20T01:46:39.085Z,101290.09
2023-01-20T01:49:13.978Z,101301.91
2023-01-20T01:51:47.094Z,101315.69
2023-01-20T01:54:20.504Z,101325.75
2023-01-20T01:56:51.051Z,101306.47
2023-01-20T01:59:22.237Z,101327.81
2023-01-20T02:01:53.721Z,101326.38
2023-01-20T02:04:25.243Z,101317.59
2023-01-20T02:06:57.754Z,101269.25
2023-01-20T02:09:27.958Z,101324.19
2023-01-20T02:12:00.291Z,101288.88
2023-01-20T02:14:35.525Z,101233.66
2023-01-20T02:17:18.066Z,101332.06
2023-01-20T02:20:55.110Z,101334.47
2023-01-20T02:23:49.740Z,101325.91
2023-01-20T02:26:44.172Z,101326.81
2023-01-20T02:29:57.845Z,101332.28
2023-01-20T02:32:41.537Z,101328.66
2023-01-20T02:35:15.164Z,101310.78
2023-01-20T02:37:52.873Z,101307.88
2023-01-20T02:40:31.945Z,101316.66
2023-01-20T02:43:10.075Z,101331.50
2023-01-20T02:45:47.215Z,101335.78
2023-01-20T02:48:25.772Z,101312.75
2023-01-20T02:51:04.049Z,101309.81
2023-01-20T02:53:40.823Z,101320.88
2023-01-20T02:56:11.131Z,101331.59
2023-01-20T02:58:48.619Z,101323.91
2023-01-20T03:01:25.192Z,101280.00
2023-01-20T03:03:59.458Z,101240.56
2023-01-20T03:06:33.416Z,101310.78
2023-01-20T03:09:08.511Z,101286.47
2023-01-20T03:11:41.972Z,101316.94
2023-01-20T03:14:15.480Z,101329.56
2023-01-20T03:16:48.406Z,101308.59
2023-01-20T03:19:20.614Z,101319.16
2023-01-20T03:21:49.720Z,101290.22
2023-01-20T03:24:18.216Z,101282.38
2023-01-20T03:26:47.161Z,101305.84
2023-01-20T03:29:18.345Z,101323.19
2023-01-20T03:31:52.101Z,101318.91
2023-01-20T03:34:24.280Z,101327.69
2023-01-20T03:36:54.864Z,101321.59
2023-01-20T03:39:24.894Z,101320.25
2023-01-20T03:42:07.228Z,101334.28
2023-01-20T03:44:54.046Z,101298.91
2023-01-20T03:47:42.223Z,101321.84
2023-01-20T03:50:25.268Z,101332.25
2023-01-20T03:53:01.353Z,101335.72
2023-01-20T03:55:37.211Z,101320.25
2023-01-20T03:58:10.900Z,101276.16
2023-01-20T04:00:44.503Z,101339.81
2023-01-20T04:03:19.934Z,101345.16
2023-01-20T04:05:51.039Z,101337.59
2023-01-20T04:08:23.501Z,101331.44
2023-01-20T04:10:53.358Z,101308.50
2023-01-20T04:13:21.966Z,101340.44
2023-01-20T04:15:51.630Z,101337.03
2023-01-20T04:18:24.079Z,101325.13
2023-01-20T04:21:00.628Z,101333.41
2023-01-20T04:23:37.430Z,101341.47
2023-01-20T04:26:06.388Z,101337.59
2023-01-20T04:28:35.481Z,101337.69
2023-01-20T04:31:03.955Z,101357.75
2023-01-20T04:33:32.440Z,101347.63
2023-01-20T04:36:02.289Z,101361.25
2023-01-20T04:38:30.862Z,101361.94
2023-01-20T04:40:59.390Z,101329.47
2023-01-20T04:43:27.820Z,101322.19
2023-01-20T04:45:56.299Z,101357.81
2023-01-20T04:48:24.799Z,101358.97
2023-01-20T04:50:53.112Z,101355.31
2023-01-20T04:53:23.034Z,101352.28
2023-01-20T04:55:51.420Z,101352.38
2023-01-20T04:58:19.881Z,101340.06
2023-01-20T05:00:48.203Z,101352.84
2023-01-20T05:03:16.871Z,101354.22
2023-01-20T05:05:45.254Z,101353.31
2023-01-20T05:08:13.815Z,101343.88
2023-01-20T05:10:43.583Z,101334.53
2023-01-20T05:13:12.064Z,101376.69
2023-01-20T05:15:41.250Z,101360.88
2023-01-20T05:18:09.811Z,101369.31
2023-01-20T05:20:38.266Z,101271.97
2023-01-20T05:23:07.090Z,101356.97
2023-01-20T05:25:35.419Z,101379.47
2023-01-20T05:28:05.731Z,101381.50
2023-01-20T05:30:34.555Z,101375.19
2023-01-20T05:33:03.017Z,101373.81
2023-01-20T05:35:31.475Z,101361.88
2023-01-20T05:37:59.922Z,101339.75
2023-01-20T05:40:28.411Z,101360.75
2023-01-20T05:43:00.501Z,101365.22
2023-01-20T05:45:30.356Z,101368.66
2023-01-20T05:48:00.551Z,101367.94
2023-01-20T05:50:30.468Z,101288.38
2023-01-20T05:52:58.851Z,101381.28
2023-01-20T05:55:27.500Z,101382.81
2023-01-20T05:57:55.935Z,101327.50
2023-01-20T06:00:25.260Z,101368.16
2023-01-20T06:02:55.307Z,101380.22
2023-01-20T06:05:24.136Z,101384.25
2023-01-20T06:07:52.641Z,101382.84
2023-01-20T06:10:21.098Z,101327.00
2023-01-20T06:12:54.058Z,101385.53
2023-01-20T06:15:24.100Z,101371.56
2023-01-20T06:17:56.197Z,101386.66
2023-01-20T06:20:24.631Z,101393.16
2023-01-20T06:22:56.692Z,101388.09
2023-01-20T06:25:25.202Z,101377.72
2023-01-20T06:27:53.577Z,101388.09
2023-01-20T06:30:22.169Z,101365.28
2023-01-20T06:32:50.695Z,101365.81
2023-01-20T06:35:20.468Z,101383.84
2023-01-20T06:37:48.968Z,101341.19
2023-01-20T06:40:18.570Z,101385.28
2023-01-20T06:42:47.035Z,101379.72
2023-01-20T06:45:17.025Z,101324.47
2023-01-20T06:48:00.512Z,101378.91
2023-01-20T06:50:30.499Z,101377.19
2023-01-20T06:52:59.023Z,101371.59
2023-01-20T06:55:28.046Z,101345.91
2023-01-20T06:57:56.663Z,101380.38
2023-01-20T07:00:26.107Z,101384.31
2023-01-20T07:02:54.457Z,101387.16
2023-01-20T07:05:22.837Z,101393.81
2023-01-20T07:07:52.978Z,101409.34
2023-01-20T07:10:21.509Z,101390.25
2023-01-20T07:12:49.900Z,101397.06
2023-01-20T07:15:18.310Z,101383.91
2023-01-20T07:17:46.920Z,101410.34
2023-01-20T07:20:15.884Z,101383.09
2023-01-20T07:22:44.577Z,101408.38
2023-01-20T07:25:14.757Z,101403.81
2023-01-20T07:27:44.089Z,101407.75
2023-01-20T07:30:13.134Z,101374.59
2023-01-20T07:32:41.620Z,101402.31
2023-01-20T07:35:10.858Z,101412.13
2023-01-20T07:37:39.344Z,101419.25
2023-01-20T07:40:10.255Z,101422.63
2023-01-20T07:42:40.360Z,101422.50
2023-01-20T07:45:10.239Z,101417.44
2023-01-20T07:47:38.659Z,101417.44
2023-01-20T07:50:07.885Z,101439.69
2023-01-20T07:52:36.305Z,101442.63
2023-01-20T07:55:05.375Z,101401.09
2023-01-20T07:57:33.814Z,101440.69
2023-01-20T08:00:04.641Z,101406.53
2023-01-20T08:02:39.021Z,101437.22
2023-01-20T08:05:09.009Z,101436.25
2023-01-20T08:07:37.411Z,101440.94
2023-01-20T08:10:07.110Z,101436.69
2023-01-20T08:12:35.420Z,101431.84
2023-01-20T08:15:06.482Z,101442.63
2023-01-20T08:17:34.912Z,101418.78
2023-01-20T08:20:03.422Z,101437.13
2023-01-20T08:22:31.734Z,101420.66
2023-01-20T08:25:00.033Z,101438.00
2023-01-20T08:27:28.559Z,101441.47
2023-01-20T08:29:56.963Z,101442.91
2023-01-20T08:32:26.663Z,101403.22
2023-01-20T08:34:55.062Z,101449.03
2023-01-20T08:37:23.663Z,101445.75
2023-01-20T08:39:51.989Z,101430.53
2023-01-20T08:42:20.405Z,101454.81
2023-01-20T08:44:53.344Z,101452.16
2023-01-20T08:47:21.742Z,101460.72
2023-01-20T08:49:53.584Z,101455.34
2023-01-20T08:52:22.077Z,101464.34
2023-01-20T08:54:53.952Z,101466.41
2023-01-20T08:57:22.262Z,101467.09
2023-01-20T08:59:50.795Z,101473.63
2023-01-20T09:02:19.117Z,101449.03
2023-01-20T09:04:49.666Z,101474.47
2023-01-20T09:07:20.750Z,101468.06
2023-01-20T09:09:49.290Z,101430.44
2023-01-20T09:12:17.599Z,101480.97
2023-01-20T09:14:46.753Z,101489.13
2023-01-20T09:17:15.144Z,101473.72
2023-01-20T09:19:43.596Z,101480.59
2023-01-20T09:22:11.945Z,101482.44
2023-01-20T09:24:41.959Z,101488.78
2023-01-20T09:27:10.453Z,101482.22
2023-01-20T09:29:38.846Z,101486.19
2023-01-20T09:32:07.393Z,101490.06
2023-01-20T09:34:36.302Z,101468.28
2023-01-20T09:37:18.831Z,101463.09
2023-01-20T09:40:06.845Z,101478.66
2023-01-20T09:43:08.853Z,101473.31
2023-01-20T09:45:45.585Z,101474.22
2023-01-20T09:48:39.723Z,101439.94
2023-01-20T09:51:32.737Z,101463.94
2023-01-20T09:54:09.990Z,101486.03
2023-01-20T09:56:48.004Z,101435.50
2023-01-20T09:59:22.073Z,101435.72
2023-01-20T10:01:55.098Z,101495.16
2023-01-20T10:04:32.914Z,101477.28
2023-01-20T10:07:09.110Z,101500.19
2023-01-20T10:09:46.045Z,101505.16
2023-01-20T10:12:23.513Z,101503.81
2023-01-20T10:14:59.569Z,101503.06
2023-01-20T10:17:35.033Z,101475.25
2023-01-20T10:20:08.924Z,101483.59
2023-01-20T10:22:43.927Z,101492.28
2023-01-20T10:25:22.051Z,101477.81
2023-01-20T10:27:57.222Z,101491.63
2023-01-20T10:30:31.824Z,101497.41
2023-01-20T10:33:07.092Z,101490.75
2023-01-20T10:35:40.467Z,101466.50
2023-01-20T10:38:21.331Z,101511.53
2023-01-20T10:40:56.720Z,101485.41
2023-01-20T10:43:27.594Z,101476.50
2023-01-20T10:46:25.064Z,101520.91
2023-01-20T10:49:22.724Z,101510.19
2023-01-20T10:52:04.455Z,101522.69
2023-01-20T10:54:43.257Z,101469.91
2023-01-20T10:57:16.319Z,101421.56
2023-01-20T10:59:50.447Z,101480.25
2023-01-20T11:02:23.983Z,101499.25
2023-01-20T11:04:58.805Z,101459.97
2023-01-20T11:07:28.807Z,101514.47
2023-01-20T11:09:57.453Z,101400.41
2023-01-20T11:12:31.413Z,101486.47
2023-01-20T11:15:02.544Z,101488.31
2023-01-20T11:17:31.251Z,101510.22
2023-01-20T11:20:07.518Z,101515.47
2023-01-20T11:22:38.795Z,101517.50
2023-01-20T11:25:23.691Z,101506.56
2023-01-20T11:27:52.952Z,101480.84
2023-01-20T11:30:30.893Z,101504.22
2023-01-20T11:33:17.328Z,101515.38
2023-01-20T11:36:00.878Z,101465.47
2023-01-20T11:38:31.736Z,101504.88
2023-01-20T11:41:00.672Z,101469.09
2023-01-20T11:43:36.230Z,101490.56
2023-01-20T11:46:28.740Z,101446.41
2023-01-20T11:49:20.361Z,101497.06
2023-01-20T11:51:55.657Z,101395.47
2023-01-20T11:54:26.661Z,101490.38
2023-01-20T11:57:00.027Z,101495.06
2023-01-20T11:59:31.381Z,101502.78
2023-01-20T12:02:21.249Z,101445.56
2023-01-20T12:05:03.850Z,101484.22
2023-01-20T12:07:38.587Z,101511.97
2023-01-20T12:10:18.736Z,101475.44
2023-01-20T12:12:52.795Z,101512.72
2023-01-20T12:15:24.789Z,101470.31
2023-01-20T12:17:59.987Z,101513.13
2023-01-20T12:20:45.659Z,101511.22
2023-01-20T12:23:24.917Z,101430.47
2023-01-20T12:25:57.942Z,101507.97
2023-01-20T12:28:35.274Z,101517.03
2023-01-20T12:31:05.888Z,101520.66
2023-01-20T12:33:40.152Z,101520.06
2023-01-20T12:36:39.568Z,101530.53
2023-01-20T12:39:29.487Z,101525.50
2023-01-20T12:42:34.451Z,101471.25
2023-01-20T12:45:13.846Z,101450.06
2023-01-20T12:47:58.472Z,101464.84
2023-01-20T12:50:46.389Z,101481.13
2023-01-20T12:53:38.991Z,101527.19
2023-01-20T12:56:19.858Z,101427.31
2023-01-20T12:58:58.501Z,101541.28
2023-01-20T13:01:55.613Z,101535.63
2023-01-20T13:05:26.003Z,101542.50
2023-01-20T13:08:08.524Z,101545.09
2023-01-20T13:11:05.353Z,101542.94
2023-01-20T13:13:56.016Z,101454.22
2023-01-20T13:16:37.658Z,101541.78
2023-01-20T13:19:14.729Z,101547.19
2023-01-20T13:21:43.287Z,101543.88
2023-01-20T13:24:24.347Z,101551.78
2023-01-20T13:26:53.450Z,101510.25
2023-01-20T13:29:23.570Z,101560.09
2023-01-20T13:31:54.015Z,101437.97
2023-01-20T13:34:36.463Z,101570.84
2023-01-20T13:37:39.507Z,101562.25
2023-01-20T13:40:58.740Z,101559.34
2023-01-20T13:43:46.979Z,101536.13
2023-01-20T13:46:50.048Z,101485.94
2023-01-20T13:49:50.334Z,101509.81
2023-01-20T13:53:25.702Z,101538.91
2023-01-20T13:56:26.712Z,101546.56
2023-01-20T13:58:55.460Z,101537.13
2023-01-20T14:01:23.913Z,101559.81
2023-01-20T14:04:04.841Z,101510.16
2023-01-20T14:06:35.891Z,101513.44
2023-01-20T14:09:19.892Z,101483.38
2023-01-20T14:11:51.914Z,101512.16
2023-01-20T14:14:22.961Z,101467.63
2023-01-20T14:16:52.252Z,101576.16
2023-01-20T14:19:25.375Z,101575.97
2023-01-20T14:21:56.500Z,101573.06
2023-01-20T14:24:31.927Z,101483.78
2023-01-20T14:27:12.890Z,101482.25
2023-01-20T14:29:41.408Z,101521.94
2023-01-20T14:32:22.567Z,101586.59
2023-01-20T14:34:51.667Z,101597.38
2023-01-20T14:37:27.781Z,101546.88
2023-01-20T14:40:01.063Z,101585.69
2023-01-20T14:42:31.141Z,101520.13
2023-01-20T14:45:00.031Z,101591.94
2023-01-20T14:47:31.412Z,101601.81
2023-01-20T14:49:59.994Z,101571.44
2023-01-20T14:52:32.418Z,101574.47
2023-01-20T14:55:02.259Z,101629.78
2023-01-20T14:57:34.004Z,101634.59
2023-01-20T15:00:20.705Z,101609.59
2023-01-20T15:03:05.357Z,101654.66
2023-01-20T15:05:40.486Z,101668.84
2023-01-20T15:08:26.326Z,101608.59
2023-01-20T15:11:23.923Z,101674.13
2023-01-20T15:14:13.648Z,101659.66
2023-01-20T15:16:51.094Z,101591.94
2023-01-20T15:19:46.689Z,101685.69
2023-01-20T15:22:22.457Z,101622.66
2023-01-20T15:24:52.072Z,101590.13
2023-01-20T15:27:34.371Z,101694.69
2023-01-20T15:30:14.286Z,101660.63
2023-01-20T15:32:43.054Z,101712.31
2023-01-20T15:35:15.242Z,101643.06
2023-01-20T15:37:45.331Z,101627.91
2023-01-20T15:40:20.236Z,101667.69
2023-01-20T15:42:53.661Z,101677.63
2023-01-20T15:45:22.301Z,101735.16
2023-01-20T15:47:50.674Z,101746.56
2023-01-20T15:50:22.642Z,101736.53
2023-01-20T15:52:51.633Z,101689.53
2023-01-20T15:55:21.023Z,101770.50
2023-01-20T15:57:53.128Z,101770.38
2023-01-20T16:00:24.772Z,101747.50
2023-01-20T16:02:53.212Z,101721.69
2023-01-20T16:05:22.125Z,101794.25
2023-01-20T16:07:50.633Z,101780.16
2023-01-20T16:10:21.029Z,101809.75
2023-01-20T16:12:50.833Z,101809.06
2023-01-20T16:15:20.117Z,101814.38
2023-01-20T16:17:50.917Z,101812.97
2023-01-20T16:20:25.647Z,101807.25
2023-01-20T16:22:54.277Z,101801.38
2023-01-20T16:25:23.210Z,101807.72
2023-01-20T16:27:52.960Z,101798.28
2023-01-20T16:30:24.691Z,101865.72
2023-01-20T16:32:53.244Z,101840.84
2023-01-20T16:35:23.606Z,101868.16
2023-01-20T16:37:52.412Z,101880.16
2023-01-20T16:40:22.715Z,101845.66
2023-01-20T16:42:56.962Z,101788.19
2023-01-20T16:45:29.417Z,101841.31
2023-01-20T16:47:58.105Z,101902.97
2023-01-20T16:50:28.549Z,101906.06
2023-01-20T16:52:57.277Z,101809.69
2023-01-20T16:55:25.727Z,101923.13
2023-01-20T16:57:55.415Z,101925.91
2023-01-20T17:00:24.432Z,101888.09
2023-01-20T17:02:53.291Z,101935.75
2023-01-20T17:05:25.639Z,101948.84
2023-01-20T17:07:56.885Z,101948.47
2023-01-20T17:10:27.024Z,101961.50
2023-01-20T17:12:58.299Z,101952.16
2023-01-20T17:15:27.553Z,101964.34
2023-01-20T17:17:59.879Z,101904.69
2023-01-20T17:20:31.018Z,101935.09
2023-01-20T17:22:59.538Z,101981.28
2023-01-20T17:25:28.407Z,101986.72
2023-01-20T17:27:58.227Z,102002.66
2023-01-20T17:30:26.966Z,101958.78
2023-01-20T17:32:55.628Z,101996.03
2023-01-20T17:35:24.022Z,101991.25
2023-01-20T17:37:52.600Z,101962.16
2023-01-20T17:40:21.110Z,102037.00
2023-01-20T17:42:53.023Z,102019.88
2023-01-20T17:45:22.759Z,102049.69
2023-01-20T17:47:52.231Z,102059.13
2023-01-20T17:50:20.881Z,102009.44
2023-01-20T17:52:49.723Z,102065.69
2023-01-20T17:55:18.608Z,102072.16
2023-01-20T17:57:47.022Z,101996.03
2023-01-20T18:00:16.443Z,102065.59
2023-01-20T18:02:46.314Z,102082.50
2023-01-20T18:05:15.301Z,102031.91
2023-01-20T18:07:43.629Z,102074.44
2023-01-20T18:10:13.102Z,102103.97
2023-01-20T18:12:41.730Z,102018.97
2023-01-20T18:15:10.801Z,102105.38
2023-01-20T18:17:40.716Z,102121.25
2023-01-20T18:20:12.749Z,102127.31
2023-01-20T18:22:41.284Z,102083.59
2023-01-20T18:25:10.827Z,102134.75
2023-01-20T18:27:39.358Z,102139.63
2023-01-20T18:30:09.668Z,102086.69
2023-01-20T18:32:38.016Z,102118.19
2023-01-20T18:35:07.380Z,102107.22
2023-01-20T18:37:40.423Z,102167.22
2023-01-20T18:40:11.777Z,102168.38
2023-01-20T18:42:40.397Z,102176.84
2023-01-20T18:45:10.160Z,102185.09
2023-01-20T18:47:38.534Z,102193.59
2023-01-20T18:50:07.927Z,102156.50
2023-01-20T18:52:38.986Z,102201.88
2023-01-20T18:55:09.533Z,102184.16
2023-01-20T18:57:37.866Z,102205.25
2023-01-20T19:00:07.768Z,102214.84
2023-01-20T19:02:36.198Z,102188.81
2023-01-20T19:05:05.035Z,102206.44
2023-01-20T19:07:33.327Z,102225.84
2023-01-20T19:10:03.072Z,102243.06
2023-01-20T19:12:31.693Z,102245.56
2023-01-20T19:15:00.162Z,102261.59
2023-01-20T19:17:30.701Z,102235.72
2023-01-20T19:19:59.051Z,102247.03
2023-01-20T19:22:27.513Z,102236.66
2023-01-20T19:24:55.898Z,102267.25
2023-01-20T19:27:26.454Z,102280.63
2023-01-20T19:29:55.012Z,102244.94
2023-01-20T19:32:23.394Z,102280.81
2023-01-20T19:34:51.774Z,102288.94
2023-01-20T19:37:20.146Z,102230.78
2023-01-20T19:39:49.036Z,102296.63
2023-01-20T19:42:17.523Z,102268.84
2023-01-20T19:44:47.298Z,102275.88
2023-01-20T19:47:15.843Z,102305.06
2023-01-20T19:49:44.283Z,102311.09
2023-01-20T19:52:12.696Z,102312.59
2023-01-20T19:54:41.019Z,102314.84
2023-01-20T19:57:09.751Z,102328.31
2023-01-20T19:59:40.863Z,102292.56
2023-01-20T20:02:11.501Z,102270.34
2023-01-20T20:04:40.018Z,102281.13
2023-01-20T20:07:09.058Z,102283.59
2023-01-20T20:09:38.226Z,102349.75
2023-01-20T20:12:07.778Z,102274.13
2023-01-20T20:14:36.358Z,102345.94
2023-01-20T20:17:05.152Z,102328.69
2023-01-20T20:19:35.077Z,102348.31
2023-01-20T20:22:03.513Z,102386.13
2023-01-20T20:24:31.951Z,102317.66
2023-01-20T20:27:00.378Z,102296.81
2023-01-20T20:29:28.885Z,102394.19
2023-01-20T20:31:57.395Z,102384.41
2023-01-20T20:34:25.991Z,102409.31
2023-01-20T20:36:55.809Z,102414.22
2023-01-20T20:39:24.166Z,102429.81
2023-01-20T20:41:52.509Z,102427.22
2023-01-20T20:44:21.003Z,102396.22
2023-01-20T20:46:49.687Z,102436.53
2023-01-20T20:49:19.048Z,102420.56
2023-01-20T20:51:47.786Z,102435.59
2023-01-20T20:54:17.821Z,102449.53
2023-01-20T20:56:46.752Z,102468.16
2023-01-20T20:59:15.369Z,102473.59
2023-01-20T21:01:43.852Z,102454.38
2023-01-20T21:04:12.312Z,102474.94
2023-01-20T21:06:40.668Z,102495.78
2023-01-20T21:09:09.132Z,102500.59
2023-01-20T21:11:39.693Z,102451.50
2023-01-20T21:14:09.338Z,102483.56
2023-01-20T21:16:38.093Z,102504.44
2023-01-20T21:19:06.714Z,102446.41
2023-01-20T21:21:35.192Z,102523.69
2023-01-20T21:24:04.333Z,102459.00
2023-01-20T21:26:32.787Z,102536.88
2023-01-20T21:29:03.777Z,102482.13
2023-01-20T21:31:34.673Z,102535.47
2023-01-20T21:34:03.736Z,102512.41
2023-01-20T21:36:34.505Z,102502.22
2023-01-20T21:39:03.146Z,102534.53
2023-01-20T21:41:31.605Z,102537.91
2023-01-20T21:44:17.926Z,102497.56
2023-01-20T21:46:49.408Z,102501.16
2023-01-20T21:49:35.350Z,102558.63
2023-01-20T21:52:21.463Z,102557.59
2023-01-20T21:54:49.908Z,102519.88
2023-01-20T21:57:18.487Z,102558.31
2023-01-20T21:59:47.156Z,102567.81
2023-01-20T22:02:17.212Z,102555.63
2023-01-20T22:04:46.782Z,102582.22
2023-01-20T22:07:16.778Z,102549.84
2023-01-20T22:09:45.532Z,102591.09
2023-01-20T22:12:14.878Z,102545.00
2023-01-20T22:14:43.640Z,102588.72
2023-01-20T22:17:13.455Z,102562.13
2023-01-20T22:19:43.931Z,102603.16
2023-01-20T22:22:15.012Z,102597.50
2023-01-20T22:24:43.793Z,102586.84
2023-01-20T22:27:12.263Z,102632.13
2023-01-20T22:29:40.946Z,102630.75
2023-01-20T22:32:09.341Z,102639.41
2023-01-20T22:34:37.737Z,102635.63
2023-01-20T22:37:07.497Z,102625.66
2023-01-20T22:39:36.029Z,102638.13
2023-01-20T22:42:04.484Z,102661.56
2023-01-20T22:44:32.896Z,102672.00
2023-01-20T22:47:01.783Z,102672.88
2023-01-20T22:49:30.185Z,102682.81
2023-01-20T22:51:58.654Z,102683.69
2023-01-20T22:54:28.562Z,102693.88
2023-01-20T22:56:57.008Z,102679.19
2023-01-20T22:59:25.474Z,102683.59
2023-01-20T23:01:53.856Z,102679.59
2023-01-20T23:04:22.210Z,102641.72
2023-01-20T23:06:50.591Z,102697.84
2023-01-20T23:09:18.962Z,102714.88
2023-01-20T23:11:49.583Z,102653.56
2023-01-20T23:14:18.152Z,102710.75
2023-01-20T23:16:46.594Z,102710.63
2023-01-20T23:19:15.069Z,102718.44
2023-01-20T23:21:43.457Z,102717.44
2023-01-20T23:24:11.851Z,102721.81
2023-01-20T23:26:40.352Z,102675.19
2023-01-20T23:29:10.297Z,102718.69
2023-01-20T23:31:38.759Z,102717.59
2023-01-20T23:34:07.143Z,102739.50
2023-01-20T23:36:35.518Z,102721.03
2023-01-20T23:39:04.043Z,102712.50
2023-01-20T23:41:32.509Z,102726.66
2023-01-20T23:44:00.986Z,102692.50
2023-01-20T23:46:30.791Z,102755.41
2023-01-20T23:48:59.221Z,102710.31
2023-01-20T23:51:27.569Z,102769.72
2023-01-20T23:53:56.879Z,102770.72
2023-01-20T23:56:26.484Z,102725.84
2023-01-20T23:58:54.850Z,102704.56
